N1674V -KBHM
Flight info
| Callsign | N1674V |
|---|---|
| Flight time | N/A |
| Altitude | |
| Route | PATTERNWORK |
| Aircraft | C172/L-DOV/C |
Departure
| Time | N/A |
|---|---|
| Airport | - |
Arrival
| Time | 2026-04-20 23:47 |
|---|---|
| Airport | Birmingham-Shuttlesworth International Airport (KBHM) |
| Time | Latitude | Longitude | Altitude | Speed | Heading |
|---|---|---|---|---|---|
| 2026-04-20 23:28 | 33.66119 | -86.39970 | 2150 ft | 94 kts | 243° |
| 2026-04-20 23:28 | 33.65787 | -86.40688 | 2169 ft | 100 kts | 245° |
| 2026-04-20 23:28 | 33.65415 | -86.41440 | 2120 ft | 108 kts | 242° |
| 2026-04-20 23:29 | 33.65006 | -86.42188 | 2125 ft | 106 kts | 240° |
| 2026-04-20 23:29 | 33.64612 | -86.42934 | 2125 ft | 104 kts | 243° |
| 2026-04-20 23:29 | 33.63481 | -86.45881 | 2060 ft | 104 kts | 258° |
| 2026-04-20 23:29 | 33.63035 | -86.47576 | 2055 ft | 103 kts | 262° |
| 2026-04-20 23:30 | 33.62890 | -86.48422 | 2061 ft | 103 kts | 263° |
| 2026-04-20 23:30 | 33.62737 | -86.49252 | 2072 ft | 101 kts | 262° |
| 2026-04-20 23:30 | 33.62587 | -86.50095 | 2083 ft | 103 kts | 263° |
| 2026-04-20 23:30 | 33.62450 | -86.50942 | 2102 ft | 105 kts | 264° |
| 2026-04-20 23:31 | 33.62330 | -86.51812 | 2119 ft | 104 kts | 265° |
| 2026-04-20 23:31 | 33.62221 | -86.52673 | 2181 ft | 100 kts | 266° |
| 2026-04-20 23:31 | 33.62072 | -86.53481 | 2202 ft | 103 kts | 261° |
| 2026-04-20 23:31 | 33.61875 | -86.54321 | 2205 ft | 106 kts | 259° |
| 2026-04-20 23:32 | 33.61654 | -86.55166 | 2223 ft | 106 kts | 254° |
| 2026-04-20 23:32 | 33.61372 | -86.55980 | 2235 ft | 107 kts | 251° |
| 2026-04-20 23:32 | 33.61065 | -86.56791 | 2259 ft | 108 kts | 249° |
| 2026-04-20 23:32 | 33.60737 | -86.57606 | 2291 ft | 111 kts | 246° |
| 2026-04-20 23:33 | 33.60508 | -86.58474 | 2332 ft | 109 kts | 271° |
| 2026-04-20 23:33 | 33.60493 | -86.59383 | 2415 ft | 108 kts | 272° |
| 2026-04-20 23:33 | 33.60430 | -86.60301 | 2440 ft | 112 kts | 265° |
| 2026-04-20 23:33 | 33.60281 | -86.61212 | 2501 ft | 112 kts | 262° |
| 2026-04-20 23:34 | 33.60122 | -86.62152 | 2479 ft | 117 kts | 259° |
| 2026-04-20 23:34 | 33.59849 | -86.63097 | 2441 ft | 122 kts | 252° |
| 2026-04-20 23:34 | 33.59573 | -86.64086 | 2329 ft | 128 kts | 260° |
| 2026-04-20 23:34 | 33.59409 | -86.65133 | 2231 ft | 129 kts | 266° |
| 2026-04-20 23:35 | 33.59260 | -86.66216 | 2094 ft | 131 kts | 264° |
| 2026-04-20 23:35 | 33.59045 | -86.68398 | 1827 ft | 130 kts | 268° |
| 2026-04-20 23:35 | 33.58953 | -86.69417 | 1694 ft | 119 kts | 268° |
| 2026-04-20 23:36 | 33.58886 | -86.70350 | 1491 ft | 107 kts | 269° |
| 2026-04-20 23:36 | 33.58768 | -86.71210 | 1304 ft | 97 kts | 255° |
| 2026-04-20 23:36 | 33.58484 | -86.71884 | 1165 ft | 82 kts | 248° |
| 2026-04-20 23:36 | 33.58232 | -86.72374 | 1067 ft | 67 kts | 238° |
| 2026-04-20 23:37 | 33.57966 | -86.72824 | 965 ft | 64 kts | 236° |
| 2026-04-20 23:37 | 33.57706 | -86.73270 | 862 ft | 69 kts | 237° |
| 2026-04-20 23:37 | 33.57436 | -86.73755 | 781 ft | 74 kts | 238° |
| 2026-04-20 23:37 | 33.57146 | -86.74259 | 654 ft | 68 kts | 241° |
| 2026-04-20 23:38 | 33.56903 | -86.74679 | 635 ft | 71 kts | 232° |
| 2026-04-20 23:38 | 33.56563 | -86.75260 | 638 ft | 97 kts | 236° |
| 2026-04-20 23:38 | 33.56242 | -86.75835 | 913 ft | 85 kts | 237° |
| 2026-04-20 23:38 | 33.55897 | -86.76460 | 1033 ft | 92 kts | 239° |
| 2026-04-20 23:39 | 33.55545 | -86.77129 | 1189 ft | 94 kts | 236° |
| 2026-04-20 23:39 | 33.55093 | -86.77676 | 1411 ft | 89 kts | 217° |
| 2026-04-20 23:39 | 33.54488 | -86.77784 | 1520 ft | 97 kts | 148° |
| 2026-04-20 23:39 | 33.53921 | -86.77286 | 1601 ft | 100 kts | 126° |
| 2026-04-20 23:40 | 33.53797 | -86.76598 | 1691 ft | 78 kts | 69° |
| 2026-04-20 23:40 | 33.54029 | -86.75956 | 1617 ft | 85 kts | 56° |
| 2026-04-20 23:40 | 33.54337 | -86.75345 | 1602 ft | 84 kts | 51° |
| 2026-04-20 23:40 | 33.54673 | -86.74764 | 1572 ft | 86 kts | 49° |
| 2026-04-20 23:41 | 33.55043 | -86.74215 | 1569 ft | 84 kts | 44° |
| 2026-04-20 23:41 | 33.55438 | -86.73694 | 1550 ft | 84 kts | 43° |
| 2026-04-20 23:41 | 33.55821 | -86.73168 | 1549 ft | 83 kts | 44° |
| 2026-04-20 23:41 | 33.56225 | -86.72646 | 1543 ft | 82 kts | 39° |
| 2026-04-20 23:42 | 33.56670 | -86.72198 | 1515 ft | 83 kts | 31° |
| 2026-04-20 23:42 | 33.57185 | -86.71894 | 1514 ft | 81 kts | 21° |
| 2026-04-20 23:42 | 33.57634 | -86.71448 | 1424 ft | 91 kts | 48° |
| 2026-04-20 23:42 | 33.57996 | -86.70850 | 1423 ft | 87 kts | 46° |
| 2026-04-20 23:43 | 33.58503 | -86.70571 | 1402 ft | 86 kts | 354° |
| 2026-04-20 23:43 | 33.58989 | -86.71012 | 1328 ft | 90 kts | 299° |
| 2026-04-20 23:43 | 33.58793 | -86.71581 | 1199 ft | 78 kts | 221° |
| 2026-04-20 23:43 | 33.58437 | -86.72028 | 1075 ft | 74 kts | 237° |
| 2026-04-20 23:44 | 33.58150 | -86.72507 | 992 ft | 65 kts | 236° |
| 2026-04-20 23:44 | 33.57871 | -86.72995 | 914 ft | 74 kts | 237° |
| 2026-04-20 23:44 | 33.57573 | -86.73505 | 846 ft | 77 kts | 238° |
| 2026-04-20 23:44 | 33.57282 | -86.74022 | 709 ft | 71 kts | 238° |
| 2026-04-20 23:45 | 33.57035 | -86.74453 | 640 ft | 54 kts | 239° |
| 2026-04-20 23:45 | 33.56758 | -86.74928 | 690 ft | 79 kts | 234° |
| 2026-04-20 23:45 | 33.56433 | -86.75475 | 859 ft | 83 kts | 233° |
| 2026-04-20 23:45 | 33.56059 | -86.76043 | 1005 ft | 89 kts | 231° |
| 2026-04-20 23:46 | 33.55592 | -86.76508 | 1211 ft | 83 kts | 169° |
| 2026-04-20 23:46 | 33.55052 | -86.76335 | 1409 ft | 78 kts | 131° |
| 2026-04-20 23:46 | 33.54996 | -86.75761 | 1515 ft | 78 kts | 61° |
| 2026-04-20 23:46 | 33.55246 | -86.75128 | 1599 ft | 89 kts | 55° |
| 2026-04-20 23:47 | 33.55573 | -86.74481 | 1678 ft | 83 kts | 53° |
| 2026-04-20 23:47 | 33.55831 | -86.73945 | 1668 ft | 68 kts | 57° |
| 2026-04-20 23:47 | 33.56003 | -86.73459 | 1651 ft | 52 kts | 57° |
| 2026-04-20 23:47 | 33.56174 | -86.73129 | 1683 ft | 43 kts | 46° |
| 2026-04-20 23:48 | 33.56370 | -86.72835 | 1622 ft | 45 kts | 37° |
| 2026-04-20 23:48 | 33.56572 | -86.72518 | 1581 ft | 48 kts | 50° |
| 2026-04-20 23:48 | 33.56746 | -86.72193 | 1581 ft | 46 kts | 39° |
| 2026-04-20 23:48 | 33.56941 | -86.71876 | 1552 ft | 50 kts | 41° |
| 2026-04-20 23:49 | 33.57228 | -86.72159 | 1382 ft | 71 kts | 306° |
| 2026-04-20 23:49 | 33.57420 | -86.72710 | 1215 ft | 78 kts | 279° |
| 2026-04-20 23:49 | 33.57362 | -86.73422 | 995 ft | 88 kts | 264° |
| 2026-04-20 23:49 | 33.57212 | -86.74084 | 714 ft | 79 kts | 262° |
| 2026-04-20 23:50 | 33.56968 | -86.74567 | 637 ft | 55 kts | 232° |
| 2026-04-20 23:50 | 33.56708 | -86.75024 | 668 ft | 77 kts | 234° |
| 2026-04-20 23:50 | 33.56421 | -86.75573 | 854 ft | 76 kts | 241° |
| 2026-04-20 23:50 | 33.56137 | -86.76137 | 1016 ft | 81 kts | 238° |
| 2026-04-20 23:51 | 33.55828 | -86.76712 | 1186 ft | 85 kts | 232° |
| 2026-04-20 23:51 | 33.55344 | -86.77178 | 1351 ft | 88 kts | 200° |
| 2026-04-20 23:51 | 33.54778 | -86.76980 | 1469 ft | 92 kts | 120° |
| 2026-04-20 23:51 | 33.54402 | -86.76355 | 1639 ft | 90 kts | 107° |
| 2026-04-20 23:52 | 33.54443 | -86.75669 | 1719 ft | 90 kts | 53° |
| 2026-04-20 23:52 | 33.54794 | -86.74992 | 1553 ft | 92 kts | 52° |
| 2026-04-20 23:52 | 33.55116 | -86.74348 | 1471 ft | 87 kts | 55° |
| 2026-04-20 23:52 | 33.55403 | -86.73727 | 1485 ft | 84 kts | 55° |
| 2026-04-20 23:53 | 33.55679 | -86.73105 | 1498 ft | 82 kts | 58° |
| 2026-04-20 23:53 | 33.55951 | -86.72517 | 1501 ft | 82 kts | 52° |
| 2026-04-20 23:53 | 33.56266 | -86.71958 | 1529 ft | 78 kts | 48° |
| 2026-04-20 23:53 | 33.56599 | -86.71449 | 1564 ft | 74 kts | 45° |
| 2026-04-20 23:54 | 33.56909 | -86.70949 | 1561 ft | 77 kts | 50° |
| 2026-04-20 23:54 | 33.57222 | -86.70417 | 1573 ft | 75 kts | 49° |
| 2026-04-20 23:54 | 33.57502 | -86.69912 | 1565 ft | 76 kts | 47° |
| 2026-04-20 23:54 | 33.57828 | -86.69422 | 1598 ft | 72 kts | 44° |
| 2026-04-20 23:55 | 33.58169 | -86.68937 | 1568 ft | 79 kts | 45° |
| 2026-04-20 23:55 | 33.58527 | -86.68440 | 1590 ft | 77 kts | 41° |
| 2026-04-20 23:55 | 33.58940 | -86.68301 | 1513 ft | 87 kts | 299° |
| 2026-04-20 23:55 | 33.58805 | -86.69096 | 1355 ft | 104 kts | 257° |
| 2026-04-20 23:56 | 33.58622 | -86.69925 | 1305 ft | 102 kts | 262° |
| 2026-04-20 23:56 | 33.58453 | -86.70753 | 1233 ft | 104 kts | 258° |
| 2026-04-20 23:56 | 33.58268 | -86.71589 | 1138 ft | 102 kts | 257° |
| 2026-04-20 23:56 | 33.58063 | -86.72369 | 1027 ft | 95 kts | 255° |
| 2026-04-20 23:57 | 33.57821 | -86.73035 | 962 ft | 76 kts | 247° |
| 2026-04-20 23:57 | 33.57555 | -86.73543 | 812 ft | 68 kts | 239° |
| 2026-04-20 23:57 | 33.57284 | -86.74020 | 701 ft | 73 kts | 234° |
| 2026-04-20 23:57 | 33.57027 | -86.74468 | 639 ft | 53 kts | 232° |
| 2026-04-20 23:58 | 33.56862 | -86.74762 | 633 ft | 29 kts | 246° |
| 2026-04-20 23:58 | 33.56688 | -86.75056 | 626 ft | 66 kts | 237° |
| 2026-04-20 23:58 | 33.56403 | -86.75590 | 702 ft | 80 kts | 235° |
| 2026-04-20 23:58 | 33.56051 | -86.76170 | 811 ft | 92 kts | 234° |
| 2026-04-20 23:59 | 33.55663 | -86.76759 | 996 ft | 86 kts | 238° |
| 2026-04-20 23:59 | 33.55289 | -86.77319 | 1196 ft | 86 kts | 220° |
| 2026-04-20 23:59 | 33.54740 | -86.77412 | 1388 ft | 84 kts | 150° |